sensor_id;sensor_type;location;lat;lon;timestamp;pressure;altitude;pressure_sealevel;temperature;humidity
21828;BME280;11076;47.942;11.804;2023-01-28T00:01:53;94588.22;;;-1.73;100.00
21828;BME280;11076;47.942;11.804;2023-01-28T00:06:55;94587.41;;;-1.64;100.00
21828;BME280;11076;47.942;11.804;2023-01-28T00:11:58;94582.84;;;-1.72;100.00
21828;BME280;11076;47.942;11.804;2023-01-28T00:17:04;94588.53;;;-1.86;100.00
21828;BME280;11076;47.942;11.804;2023-01-28T00:22:06;94586.88;;;-1.97;100.00
21828;BME280;11076;47.942;11.804;2023-01-28T00:27:08;94590.44;;;-1.98;100.00
21828;BME280;11076;47.942;11.804;2023-01-28T00:32:11;94590.72;;;-2.01;100.00
21828;BME280;11076;47.942;11.804;2023-01-28T00:37:14;94598.44;;;-1.90;100.00
21828;BME280;11076;47.942;11.804;2023-01-28T00:42:16;94591.84;;;-1.74;100.00
21828;BME280;11076;47.942;11.804;2023-01-28T00:47:19;94577.06;;;-1.75;100.00
21828;BME280;11076;47.942;11.804;2023-01-28T00:52:24;94582.28;;;-1.66;100.00
21828;BME280;11076;47.942;11.804;2023-01-28T00:57:28;94583.41;;;-1.68;100.00
21828;BME280;11076;47.942;11.804;2023-01-28T01:02:31;94592.66;;;-1.84;100.00
21828;BME280;11076;47.942;11.804;2023-01-28T01:07:34;94593.06;;;-1.78;100.00
21828;BME280;11076;47.942;11.804;2023-01-28T01:12:44;94595.69;;;-1.88;100.00
21828;BME280;11076;47.942;11.804;2023-01-28T01:17:48;94597.06;;;-1.84;100.00
21828;BME280;11076;47.942;11.804;2023-01-28T01:22:51;94594.19;;;-1.91;100.00
21828;BME280;11076;47.942;11.804;2023-01-28T01:27:53;94585.91;;;-1.76;100.00
21828;BME280;11076;47.942;11.804;2023-01-28T01:32:56;94586.28;;;-1.81;100.00
21828;BME280;11076;47.942;11.804;2023-01-28T01:37:59;94591.13;;;-1.67;100.00
21828;BME280;11076;47.942;11.804;2023-01-28T01:43:04;94597.47;;;-1.69;100.00
21828;BME280;11076;47.942;11.804;2023-01-28T01:48:17;94601.75;;;-1.58;100.00
21828;BME280;11076;47.942;11.804;2023-01-28T01:53:23;94602.31;;;-1.55;100.00
21828;BME280;11076;47.942;11.804;2023-01-28T01:58:31;94604.63;;;-1.62;100.00
21828;BME280;11076;47.942;11.804;2023-01-28T02:03:52;94614.19;;;-1.70;100.00
21828;BME280;11076;47.942;11.804;2023-01-28T02:08:57;94616.66;;;-1.78;100.00
21828;BME280;11076;47.942;11.804;2023-01-28T02:14:02;94618.16;;;-1.86;100.00
21828;BME280;11076;47.942;11.804;2023-01-28T02:19:06;94606.44;;;-1.91;100.00
21828;BME280;11076;47.942;11.804;2023-01-28T02:40:11;94624.94;;;-2.03;100.00
21828;BME280;11076;47.942;11.804;2023-01-28T02:45:24;94614.31;;;-2.11;100.00
21828;BME280;11076;47.942;11.804;2023-01-28T02:50:45;94626.44;;;-2.10;100.00
21828;BME280;11076;47.942;11.804;2023-01-28T03:01:27;94628.50;;;-1.94;100.00
21828;BME280;11076;47.942;11.804;2023-01-28T03:06:38;94619.16;;;-1.87;100.00
21828;BME280;11076;47.942;11.804;2023-01-28T03:11:45;94634.03;;;-1.97;100.00
21828;BME280;11076;47.942;11.804;2023-01-28T03:17:13;94639.13;;;-1.95;100.00
21828;BME280;11076;47.942;11.804;2023-01-28T03:22:40;94639.81;;;-1.93;100.00
21828;BME280;11076;47.942;11.804;2023-01-28T03:28:07;94643.13;;;-2.01;100.00
21828;BME280;11076;47.942;11.804;2023-01-28T03:33:35;94639.00;;;-1.94;100.00
21828;BME280;11076;47.942;11.804;2023-01-28T03:38:57;94652.38;;;-1.97;100.00
21828;BME280;11076;47.942;11.804;2023-01-28T03:44:00;94654.47;;;-1.91;100.00
21828;BME280;11076;47.942;11.804;2023-01-28T03:49:21;94657.78;;;-1.89;100.00
21828;BME280;11076;47.942;11.804;2023-01-28T03:54:24;94657.34;;;-1.94;100.00
21828;BME280;11076;47.942;11.804;2023-01-28T03:59:27;94652.00;;;-1.73;100.00
21828;BME280;11076;47.942;11.804;2023-01-28T04:04:30;94653.63;;;-1.82;100.00
21828;BME280;11076;47.942;11.804;2023-01-28T04:09:34;94656.09;;;-2.00;100.00
21828;BME280;11076;47.942;11.804;2023-01-28T04:14:59;94653.44;;;-2.09;100.00
21828;BME280;11076;47.942;11.804;2023-01-28T04:20:05;94659.41;;;-1.97;100.00
21828;BME280;11076;47.942;11.804;2023-01-28T04:25:08;94665.47;;;-1.87;100.00
21828;BME280;11076;47.942;11.804;2023-01-28T04:30:11;94661.78;;;-1.85;100.00
21828;BME280;11076;47.942;11.804;2023-01-28T04:35:17;94670.34;;;-1.83;100.00
21828;BME280;11076;47.942;11.804;2023-01-28T04:40:32;94675.97;;;-1.97;100.00
21828;BME280;11076;47.942;11.804;2023-01-28T04:45:45;94682.72;;;-1.94;100.00
21828;BME280;11076;47.942;11.804;2023-01-28T04:51:08;94689.50;;;-1.82;100.00
21828;BME280;11076;47.942;11.804;2023-01-28T04:56:31;94695.69;;;-1.83;100.00
21828;BME280;11076;47.942;11.804;2023-01-28T05:01:34;94688.94;;;-1.76;100.00
21828;BME280;11076;47.942;11.804;2023-01-28T05:06:37;94696.00;;;-1.76;100.00
21828;BME280;11076;47.942;11.804;2023-01-28T05:11:48;94698.63;;;-1.67;100.00
21828;BME280;11076;47.942;11.804;2023-01-28T05:16:50;94705.25;;;-1.63;100.00
21828;BME280;11076;47.942;11.804;2023-01-28T05:21:54;94695.03;;;-1.66;100.00
21828;BME280;11076;47.942;11.804;2023-01-28T05:27:09;94706.75;;;-1.80;100.00
21828;BME280;11076;47.942;11.804;2023-01-28T05:32:12;94710.19;;;-1.89;100.00
21828;BME280;11076;47.942;11.804;2023-01-28T05:37:14;94713.63;;;-1.88;100.00
21828;BME280;11076;47.942;11.804;2023-01-28T05:42:18;94717.34;;;-1.91;100.00
21828;BME280;11076;47.942;11.804;2023-01-28T05:47:24;94728.94;;;-1.84;100.00
21828;BME280;11076;47.942;11.804;2023-01-28T05:52:53;94732.81;;;-1.88;100.00
21828;BME280;11076;47.942;11.804;2023-01-28T05:58:00;94738.72;;;-1.86;100.00
21828;BME280;11076;47.942;11.804;2023-01-28T06:03:03;94740.81;;;-1.80;100.00
21828;BME280;11076;47.942;11.804;2023-01-28T06:08:06;94740.13;;;-1.82;100.00
21828;BME280;11076;47.942;11.804;2023-01-28T06:13:10;94748.53;;;-1.88;100.00
21828;BME280;11076;47.942;11.804;2023-01-28T06:18:12;94751.72;;;-1.84;100.00
21828;BME280;11076;47.942;11.804;2023-01-28T06:23:15;94748.81;;;-1.91;100.00
21828;BME280;11076;47.942;11.804;2023-01-28T06:28:18;94761.72;;;-1.99;100.00
21828;BME280;11076;47.942;11.804;2023-01-28T06:33:21;94762.88;;;-1.92;100.00
21828;BME280;11076;47.942;11.804;2023-01-28T06:38:23;94766.50;;;-1.73;100.00
21828;BME280;11076;47.942;11.804;2023-01-28T06:43:26;94775.31;;;-1.84;100.00
21828;BME280;11076;47.942;11.804;2023-01-28T06:48:32;94776.41;;;-1.87;100.00
21828;BME280;11076;47.942;11.804;2023-01-28T06:53:34;94773.94;;;-1.78;100.00
21828;BME280;11076;47.942;11.804;2023-01-28T06:58:37;94777.13;;;-1.65;100.00
21828;BME280;11076;47.942;11.804;2023-01-28T07:03:39;94788.06;;;-1.60;100.00
21828;BME280;11076;47.942;11.804;2023-01-28T07:08:42;94795.78;;;-1.68;100.00
21828;BME280;11076;47.942;11.804;2023-01-28T07:13:44;94793.03;;;-1.57;100.00
21828;BME280;11076;47.942;11.804;2023-01-28T07:18:48;94789.75;;;-1.40;100.00
21828;BME280;11076;47.942;11.804;2023-01-28T07:23:51;94800.53;;;-1.43;100.00
21828;BME280;11076;47.942;11.804;2023-01-28T07:28:54;94802.16;;;-1.42;100.00
21828;BME280;11076;47.942;11.804;2023-01-28T07:33:56;94808.00;;;-1.28;100.00
21828;BME280;11076;47.942;11.804;2023-01-28T07:38:59;94805.38;;;-1.28;100.00
21828;BME280;11076;47.942;11.804;2023-01-28T07:44:01;94810.63;;;-1.09;100.00
21828;BME280;11076;47.942;11.804;2023-01-28T07:49:04;94821.81;;;-1.07;100.00
21828;BME280;11076;47.942;11.804;2023-01-28T07:54:07;94826.78;;;-0.94;100.00
21828;BME280;11076;47.942;11.804;2023-01-28T07:59:10;94822.66;;;-0.96;100.00
21828;BME280;11076;47.942;11.804;2023-01-28T08:04:12;94829.72;;;-0.87;100.00
21828;BME280;11076;47.942;11.804;2023-01-28T08:09:15;94835.66;;;-0.85;100.00
21828;BME280;11076;47.942;11.804;2023-01-28T08:14:18;94837.16;;;-0.63;100.00
21828;BME280;11076;47.942;11.804;2023-01-28T08:19:20;94832.31;;;-0.68;100.00
21828;BME280;11076;47.942;11.804;2023-01-28T08:24:23;94843.66;;;-0.77;100.00
21828;BME280;11076;47.942;11.804;2023-01-28T08:29:25;94857.88;;;-0.70;100.00
21828;BME280;11076;47.942;11.804;2023-01-28T08:34:28;94867.16;;;-0.85;100.00
21828;BME280;11076;47.942;11.804;2023-01-28T08:39:30;94870.88;;;-0.68;100.00
21828;BME280;11076;47.942;11.804;2023-01-28T08:44:33;94864.38;;;-0.54;100.00
21828;BME280;11076;47.942;11.804;2023-01-28T08:49:35;94875.31;;;-0.69;100.00
21828;BME280;11076;47.942;11.804;2023-01-28T08:54:38;94872.25;;;-0.54;100.00
21828;BME280;11076;47.942;11.804;2023-01-28T08:59:40;94882.06;;;-0.86;98.29
21828;BME280;11076;47.942;11.804;2023-01-28T09:04:46;94886.47;;;-1.06;99.41
21828;BME280;11076;47.942;11.804;2023-01-28T09:09:48;94887.03;;;-0.92;99.39
21828;BME280;11076;47.942;11.804;2023-01-28T09:14:52;94885.38;;;-0.84;98.69
21828;BME280;11076;47.942;11.804;2023-01-28T09:19:54;94891.75;;;-0.47;98.88
21828;BME280;11076;47.942;11.804;2023-01-28T09:24:57;94890.63;;;-0.06;98.88
21828;BME280;11076;47.942;11.804;2023-01-28T09:29:59;94890.16;;;0.09;98.38
21828;BME280;11076;47.942;11.804;2023-01-28T09:35:02;94884.19;;;0.16;98.46
21828;BME280;11076;47.942;11.804;2023-01-28T09:40:05;94884.13;;;0.36;97.93
21828;BME280;11076;47.942;11.804;2023-01-28T09:50:40;94881.13;;;0.58;95.93
21828;BME280;11076;47.942;11.804;2023-01-28T09:55:56;94878.63;;;0.85;95.99
21828;BME280;11076;47.942;11.804;2023-01-28T10:06:16;94867.88;;;1.24;93.78
21828;BME280;11076;47.942;11.804;2023-01-28T10:11:31;94861.16;;;1.65;93.79
21828;BME280;11076;47.942;11.804;2023-01-28T10:16:48;94862.63;;;1.86;92.37
21828;BME280;11076;47.942;11.804;2023-01-28T10:26:55;94868.09;;;1.92;90.61
21828;BME280;11076;47.942;11.804;2023-01-28T10:32:03;94859.94;;;2.30;90.34
21828;BME280;11076;47.942;11.804;2023-01-28T10:37:10;94860.72;;;2.56;89.80
21828;BME280;11076;47.942;11.804;2023-01-28T10:42:19;94863.91;;;2.68;85.91
21828;BME280;11076;47.942;11.804;2023-01-28T10:47:37;94858.47;;;2.70;84.45
21828;BME280;11076;47.942;11.804;2023-01-28T10:53:00;94846.06;;;3.05;83.53
21828;BME280;11076;47.942;11.804;2023-01-28T10:58:03;94839.50;;;3.58;82.02
21828;BME280;11076;47.942;11.804;2023-01-28T11:03:17;94837.53;;;3.76;81.03
21828;BME280;11076;47.942;11.804;2023-01-28T11:08:20;94829.94;;;3.49;81.09
21828;BME280;11076;47.942;11.804;2023-01-28T11:18:29;94839.19;;;4.02;79.29
21828;BME280;11076;47.942;11.804;2023-01-28T11:23:48;94843.31;;;3.96;79.08
21828;BME280;11076;47.942;11.804;2023-01-28T11:28:51;94847.78;;;3.55;77.88
21828;BME280;11076;47.942;11.804;2023-01-28T11:33:57;94852.34;;;3.20;72.78
21828;BME280;11076;47.942;11.804;2023-01-28T12:00:01;94857.00;;;2.33;74.02
21828;BME280;11076;47.942;11.804;2023-01-28T12:42:41;94859.94;;;2.04;75.22
21828;BME280;11076;47.942;11.804;2023-01-28T12:47:56;94863.50;;;2.89;76.30
21828;BME280;11076;47.942;11.804;2023-01-28T12:53:08;94852.66;;;3.09;74.93
21828;BME280;11076;47.942;11.804;2023-01-28T12:58:19;94855.97;;;3.03;75.65
21828;BME280;11076;47.942;11.804;2023-01-28T13:03:40;94859.16;;;2.80;75.35
21828;BME280;11076;47.942;11.804;2023-01-28T13:08:46;94869.44;;;2.23;75.26
21828;BME280;11076;47.942;11.804;2023-01-28T13:13:50;94867.91;;;1.86;76.69
21828;BME280;11076;47.942;11.804;2023-01-28T13:19:07;94868.34;;;1.63;76.61
21828;BME280;11076;47.942;11.804;2023-01-28T13:34:37;94889.59;;;1.08;79.47
21828;BME280;11076;47.942;11.804;2023-01-28T13:39:47;94889.00;;;1.14;80.07
21828;BME280;11076;47.942;11.804;2023-01-28T13:44:51;94887.28;;;1.41;80.31
21828;BME280;11076;47.942;11.804;2023-01-28T13:50:15;94887.13;;;1.42;80.84
21828;BME280;11076;47.942;11.804;2023-01-28T13:55:22;94898.41;;;1.34;81.11
21828;BME280;11076;47.942;11.804;2023-01-28T14:06:12;94905.09;;;0.83;83.03
21828;BME280;11076;47.942;11.804;2023-01-28T14:22:25;94926.03;;;0.47;84.18
21828;BME280;11076;47.942;11.804;2023-01-28T14:27:34;94923.44;;;0.37;84.99
21828;BME280;11076;47.942;11.804;2023-01-28T14:32:44;94922.44;;;0.48;85.20
21828;BME280;11076;47.942;11.804;2023-01-28T14:37:47;94934.03;;;0.18;85.66
21828;BME280;11076;47.942;11.804;2023-01-28T14:42:52;94936.47;;;0.29;86.22
21828;BME280;11076;47.942;11.804;2023-01-28T14:58:52;94950.09;;;0.05;88.03
21828;BME280;11076;47.942;11.804;2023-01-28T15:03:59;94945.13;;;0.02;88.76
21828;BME280;11076;47.942;11.804;2023-01-28T15:09:07;94952.03;;;0.03;88.92
21828;BME280;11076;47.942;11.804;2023-01-28T15:14:30;94950.78;;;0.07;89.63
21828;BME280;11076;47.942;11.804;2023-01-28T15:19:34;94956.16;;;0.06;89.28
21828;BME280;11076;47.942;11.804;2023-01-28T15:24:41;94952.31;;;0.00;89.95
21828;BME280;11076;47.942;11.804;2023-01-28T15:29:56;94966.69;;;-0.04;90.55
21828;BME280;11076;47.942;11.804;2023-01-28T15:34:59;94967.38;;;-0.02;90.65
21828;BME280;11076;47.942;11.804;2023-01-28T15:40:04;94967.66;;;-0.05;90.60
21828;BME280;11076;47.942;11.804;2023-01-28T15:45:17;94976.69;;;-0.08;90.95
21828;BME280;11076;47.942;11.804;2023-01-28T15:50:24;94978.75;;;-0.11;91.61
21828;BME280;11076;47.942;11.804;2023-01-28T15:55:40;94982.31;;;-0.12;91.41
21828;BME280;11076;47.942;11.804;2023-01-28T16:00:43;94996.03;;;-0.09;91.90
21828;BME280;11076;47.942;11.804;2023-01-28T16:05:58;94990.50;;;-0.06;91.86
21828;BME280;11076;47.942;11.804;2023-01-28T16:11:02;94998.09;;;-0.12;91.92
21828;BME280;11076;47.942;11.804;2023-01-28T16:16:05;94995.63;;;-0.14;92.35
21828;BME280;11076;47.942;11.804;2023-01-28T16:21:10;95006.53;;;-0.18;92.74
21828;BME280;11076;47.942;11.804;2023-01-28T16:26:22;95019.69;;;-0.18;92.62
21828;BME280;11076;47.942;11.804;2023-01-28T16:31:25;95031.03;;;-0.28;92.79
21828;BME280;11076;47.942;11.804;2023-01-28T16:36:27;95027.72;;;-0.30;93.49
21828;BME280;11076;47.942;11.804;2023-01-28T16:41:33;95030.34;;;-0.30;93.39
21828;BME280;11076;47.942;11.804;2023-01-28T16:46:36;95036.13;;;-0.36;94.11
21828;BME280;11076;47.942;11.804;2023-01-28T16:51:40;95038.59;;;-0.44;94.71
21828;BME280;11076;47.942;11.804;2023-01-28T16:56:45;95035.81;;;-0.52;94.58
21828;BME280;11076;47.942;11.804;2023-01-28T17:01:48;95037.63;;;-0.43;95.14
21828;BME280;11076;47.942;11.804;2023-01-28T17:06:50;95041.81;;;-0.31;95.18
21828;BME280;11076;47.942;11.804;2023-01-28T17:11:54;95040.53;;;-0.36;95.65
21828;BME280;11076;47.942;11.804;2023-01-28T17:16:56;95047.06;;;-0.31;96.04
21828;BME280;11076;47.942;11.804;2023-01-28T17:21:59;95054.50;;;-0.36;96.09
21828;BME280;11076;47.942;11.804;2023-01-28T17:27:02;95056.88;;;-0.33;96.50
21828;BME280;11076;47.942;11.804;2023-01-28T17:32:04;95061.88;;;-0.20;96.04
21828;BME280;11076;47.942;11.804;2023-01-28T17:37:07;95057.47;;;-0.19;95.81
21828;BME280;11076;47.942;11.804;2023-01-28T17:42:09;95062.25;;;-0.34;95.76
21828;BME280;11076;47.942;11.804;2023-01-28T17:47:12;95069.84;;;-0.51;95.84
21828;BME280;11076;47.942;11.804;2023-01-28T17:52:14;95069.56;;;-0.38;96.19
21828;BME280;11076;47.942;11.804;2023-01-28T17:57:17;95070.72;;;-0.31;96.70
21828;BME280;11076;47.942;11.804;2023-01-28T18:02:19;95068.91;;;-0.30;96.38
21828;BME280;11076;47.942;11.804;2023-01-28T18:07:22;95067.94;;;-0.39;97.22
21828;BME280;11076;47.942;11.804;2023-01-28T18:12:25;95071.50;;;-0.40;96.91
21828;BME280;11076;47.942;11.804;2023-01-28T18:17:27;95074.56;;;-0.35;96.87
21828;BME280;11076;47.942;11.804;2023-01-28T18:22:31;95079.00;;;-0.35;96.77
21828;BME280;11076;47.942;11.804;2023-01-28T18:27:34;95069.97;;;-0.52;96.81
21828;BME280;11076;47.942;11.804;2023-01-28T18:32:36;95073.91;;;-0.68;97.23
21828;BME280;11076;47.942;11.804;2023-01-28T18:37:40;95083.75;;;-0.60;97.69
21828;BME280;11076;47.942;11.804;2023-01-28T18:42:42;95082.00;;;-0.59;97.58
21828;BME280;11076;47.942;11.804;2023-01-28T18:47:45;95088.06;;;-0.59;97.67
21828;BME280;11076;47.942;11.804;2023-01-28T18:52:48;95091.81;;;-0.52;97.84
21828;BME280;11076;47.942;11.804;2023-01-28T18:57:50;95098.00;;;-0.63;97.79
21828;BME280;11076;47.942;11.804;2023-01-28T19:02:52;95106.88;;;-0.64;98.19
21828;BME280;11076;47.942;11.804;2023-01-28T19:07:55;95112.31;;;-0.76;98.16
21828;BME280;11076;47.942;11.804;2023-01-28T19:12:58;95109.28;;;-0.82;99.02
21828;BME280;11076;47.942;11.804;2023-01-28T19:18:00;95113.44;;;-0.79;98.90
21828;BME280;11076;47.942;11.804;2023-01-28T19:23:04;95116.09;;;-0.69;99.00
21828;BME280;11076;47.942;11.804;2023-01-28T19:28:08;95111.31;;;-0.54;99.04
21828;BME280;11076;47.942;11.804;2023-01-28T19:33:11;95117.00;;;-0.49;99.10
21828;BME280;11076;47.942;11.804;2023-01-28T19:38:13;95112.97;;;-0.53;98.81
21828;BME280;11076;47.942;11.804;2023-01-28T19:43:16;95112.28;;;-0.55;99.39
21828;BME280;11076;47.942;11.804;2023-01-28T19:48:19;95102.31;;;-0.52;99.34
21828;BME280;11076;47.942;11.804;2023-01-28T19:53:22;95108.41;;;-0.51;99.35
21828;BME280;11076;47.942;11.804;2023-01-28T19:58:26;95098.16;;;-0.54;99.44
21828;BME280;11076;47.942;11.804;2023-01-28T20:03:28;95097.59;;;-0.58;99.70
21828;BME280;11076;47.942;11.804;2023-01-28T20:08:31;95100.75;;;-0.64;99.87
21828;BME280;11076;47.942;11.804;2023-01-28T20:13:34;95107.00;;;-0.65;100.00
21828;BME280;11076;47.942;11.804;2023-01-28T20:18:37;95097.06;;;-0.62;100.00
21828;BME280;11076;47.942;11.804;2023-01-28T20:23:40;95103.25;;;-0.63;99.79
21828;BME280;11076;47.942;11.804;2023-01-28T20:28:42;95112.53;;;-0.58;99.68
21828;BME280;11076;47.942;11.804;2023-01-28T20:33:45;95112.97;;;-0.53;99.83
21828;BME280;11076;47.942;11.804;2023-01-28T20:38:47;95118.19;;;-0.63;99.16
21828;BME280;11076;47.942;11.804;2023-01-28T20:43:51;95118.06;;;-0.62;99.65
21828;BME280;11076;47.942;11.804;2023-01-28T20:48:56;95117.22;;;-0.62;99.68
21828;BME280;11076;47.942;11.804;2023-01-28T20:53:59;95118.41;;;-0.76;100.00
21828;BME280;11076;47.942;11.804;2023-01-28T20:59:04;95118.97;;;-0.72;100.00
21828;BME280;11076;47.942;11.804;2023-01-28T21:04:08;95123.22;;;-0.81;100.00
21828;BME280;11076;47.942;11.804;2023-01-28T21:09:11;95119.25;;;-0.75;100.00
21828;BME280;11076;47.942;11.804;2023-01-28T21:14:14;95125.31;;;-0.75;100.00
21828;BME280;11076;47.942;11.804;2023-01-28T21:19:18;95132.56;;;-0.67;100.00
21828;BME280;11076;47.942;11.804;2023-01-28T21:24:23;95120.66;;;-0.71;99.77
21828;BME280;11076;47.942;11.804;2023-01-28T21:29:25;95116.44;;;-0.84;99.65
21828;BME280;11076;47.942;11.804;2023-01-28T21:34:28;95131.53;;;-1.07;99.33
21828;BME280;11076;47.942;11.804;2023-01-28T21:39:30;95130.25;;;-1.33;100.00
21828;BME280;11076;47.942;11.804;2023-01-28T21:44:33;95137.28;;;-1.34;100.00
21828;BME280;11076;47.942;11.804;2023-01-28T21:49:35;95135.69;;;-1.46;100.00
21828;BME280;11076;47.942;11.804;2023-01-28T21:54:38;95129.16;;;-1.52;100.00
21828;BME280;11076;47.942;11.804;2023-01-28T21:59:40;95142.84;;;-1.48;100.00
21828;BME280;11076;47.942;11.804;2023-01-28T22:04:44;95134.84;;;-1.47;100.00
21828;BME280;11076;47.942;11.804;2023-01-28T22:09:52;95144.38;;;-1.46;100.00
21828;BME280;11076;47.942;11.804;2023-01-28T22:14:55;95148.75;;;-1.67;100.00
21828;BME280;11076;47.942;11.804;2023-01-28T22:19:57;95153.34;;;-1.81;100.00
21828;BME280;11076;47.942;11.804;2023-01-28T22:25:00;95160.44;;;-2.04;100.00
21828;BME280;11076;47.942;11.804;2023-01-28T22:30:03;95163.50;;;-1.87;100.00
21828;BME280;11076;47.942;11.804;2023-01-28T22:35:06;95155.22;;;-1.71;100.00
21828;BME280;11076;47.942;11.804;2023-01-28T22:40:09;95157.97;;;-1.73;100.00
21828;BME280;11076;47.942;11.804;2023-01-28T22:45:11;95150.63;;;-1.58;100.00
21828;BME280;11076;47.942;11.804;2023-01-28T22:50:14;95145.88;;;-1.53;100.00
21828;BME280;11076;47.942;11.804;2023-01-28T22:55:17;95146.75;;;-1.43;100.00
21828;BME280;11076;47.942;11.804;2023-01-28T23:00:19;95144.44;;;-1.36;100.00
21828;BME280;11076;47.942;11.804;2023-01-28T23:05:27;95133.38;;;-1.40;100.00
21828;BME280;11076;47.942;11.804;2023-01-28T23:10:30;95135.81;;;-1.69;100.00
21828;BME280;11076;47.942;11.804;2023-01-28T23:15:34;95128.00;;;-1.91;100.00
21828;BME280;11076;47.942;11.804;2023-01-28T23:20:57;95132.50;;;-2.26;100.00
21828;BME280;11076;47.942;11.804;2023-01-28T23:26:18;95128.34;;;-2.28;100.00
21828;BME280;11076;47.942;11.804;2023-01-28T23:31:20;95133.22;;;-2.35;100.00
21828;BME280;11076;47.942;11.804;2023-01-28T23:36:23;95141.22;;;-2.36;100.00
21828;BME280;11076;47.942;11.804;2023-01-28T23:41:26;95139.22;;;-2.44;100.00
21828;BME280;11076;47.942;11.804;2023-01-28T23:46:28;95141.72;;;-2.54;100.00
21828;BME280;11076;47.942;11.804;2023-01-28T23:51:40;95138.28;;;-2.54;100.00
21828;BME280;11076;47.942;11.804;2023-01-28T23:56:42;95135.44;;;-2.63;100.00
